createdAt,value
2023-02-25T00:00:31.887Z,1.05
2023-02-25T00:02:59.089Z,1.30
2023-02-25T00:05:26.340Z,0.80
2023-02-25T00:07:53.644Z,1.00
2023-02-25T00:10:20.385Z,0.98
2023-02-25T00:12:46.996Z,0.98
2023-02-25T00:15:13.510Z,0.93
2023-02-25T00:17:40.150Z,0.93
2023-02-25T00:20:12.916Z,1.00
2023-02-25T00:22:39.634Z,1.33
2023-02-25T00:25:07.017Z,1.17
2023-02-25T00:27:33.463Z,2.08
2023-02-25T00:30:00.628Z,1.50
2023-02-25T00:32:27.602Z,2.47
2023-02-25T00:34:54.177Z,1.45
2023-02-25T00:37:20.769Z,2.15
2023-02-25T00:39:47.212Z,1.77
2023-02-25T00:42:16.032Z,1.33
2023-02-25T00:44:47.433Z,1.00
2023-02-25T00:47:15.226Z,2.28
2023-02-25T00:49:44.554Z,1.77
2023-02-25T00:52:11.608Z,2.03
2023-02-25T00:54:39.524Z,1.85
2023-02-25T00:57:06.609Z,2.08
2023-02-25T00:59:33.536Z,1.70
2023-02-25T01:02:00.231Z,1.88
2023-02-25T01:04:27.033Z,1.45
2023-02-25T01:06:54.594Z,1.52
2023-02-25T01:09:21.596Z,2.08
2023-02-25T01:11:48.675Z,1.77
2023-02-25T01:14:23.889Z,1.30
2023-02-25T01:16:51.588Z,0.90
2023-02-25T01:19:22.911Z,1.00
2023-02-25T01:21:55.446Z,0.80
2023-02-25T01:24:30.740Z,1.10
2023-02-25T01:26:59.950Z,1.15
2023-02-25T01:29:34.634Z,1.48
2023-02-25T01:34:30.444Z,1.50
2023-02-25T01:36:57.361Z,1.63
2023-02-25T01:39:26.430Z,1.75
2023-02-25T01:41:55.412Z,2.63
2023-02-25T01:44:28.722Z,2.72
2023-02-25T01:46:55.666Z,3.10
2023-02-25T01:49:31.862Z,2.20
2023-02-25T01:52:10.594Z,2.28
2023-02-25T01:54:38.297Z,2.85
2023-02-25T01:57:10.922Z,0.90
2023-02-25T01:59:40.159Z,2.20
2023-02-25T02:02:19.009Z,2.20
2023-02-25T02:04:51.260Z,1.77
2023-02-25T02:07:19.882Z,2.40
2023-02-25T02:09:56.559Z,1.70
2023-02-25T02:12:33.384Z,1.58
2023-02-25T02:15:02.424Z,1.60
2023-02-25T02:17:59.397Z,1.55
2023-02-25T02:20:33.658Z,3.15
2023-02-25T02:23:10.376Z,1.83
2023-02-25T02:26:01.065Z,1.60
2023-02-25T02:28:48.641Z,1.67
2023-02-25T02:31:38.508Z,1.70
2023-02-25T02:34:19.109Z,1.38
2023-02-25T02:36:59.607Z,1.55
2023-02-25T02:39:36.332Z,1.98
2023-02-25T02:42:17.517Z,1.25
2023-02-25T02:44:56.279Z,1.67
2023-02-25T02:47:37.996Z,2.45
2023-02-25T02:50:10.006Z,1.42
2023-02-25T02:52:44.589Z,0.90
2023-02-25T02:55:24.603Z,1.80
2023-02-25T02:58:00.668Z,0.85
2023-02-25T03:00:34.652Z,1.60
2023-02-25T03:03:13.332Z,1.88
2023-02-25T03:05:42.756Z,1.42
2023-02-25T03:08:31.251Z,2.00
2023-02-25T03:10:57.836Z,1.50
2023-02-25T03:13:24.446Z,1.50
2023-02-25T03:15:52.694Z,1.52
2023-02-25T03:18:31.426Z,0.65
2023-02-25T03:21:00.987Z,1.20
2023-02-25T03:23:32.530Z,1.50
2023-02-25T03:26:14.235Z,1.80
2023-02-25T03:28:44.749Z,1.50
2023-02-25T03:31:23.853Z,2.17
2023-02-25T03:34:19.616Z,2.40
2023-02-25T03:36:51.176Z,1.52
2023-02-25T03:39:22.730Z,1.70
2023-02-25T03:41:53.506Z,1.45
2023-02-25T03:44:26.105Z,1.33
2023-02-25T03:46:55.308Z,1.50
2023-02-25T03:49:34.838Z,1.73
2023-02-25T03:52:06.253Z,1.00
2023-02-25T03:54:32.796Z,1.98
2023-02-25T03:56:59.344Z,1.60
2023-02-25T03:59:28.345Z,2.10
2023-02-25T04:01:57.930Z,0.80
2023-02-25T04:04:24.853Z,1.75
2023-02-25T04:06:51.822Z,1.23
2023-02-25T04:09:19.332Z,1.95
2023-02-25T04:11:45.986Z,0.95
2023-02-25T04:14:12.785Z,0.98
2023-02-25T04:16:39.637Z,1.35
2023-02-25T04:19:06.267Z,1.40
2023-02-25T04:21:36.036Z,1.25
2023-02-25T04:24:05.590Z,1.38
2023-02-25T04:26:33.200Z,2.05
2023-02-25T04:29:00.324Z,1.25
2023-02-25T04:31:27.304Z,1.88
2023-02-25T04:33:54.359Z,1.55
2023-02-25T04:36:33.178Z,1.63
2023-02-25T04:39:04.522Z,2.35
2023-02-25T04:41:34.154Z,1.70
2023-02-25T04:44:04.016Z,1.15
2023-02-25T04:46:33.475Z,1.75
2023-02-25T04:49:00.759Z,1.52
2023-02-25T04:51:27.680Z,1.35
2023-02-25T04:53:54.705Z,1.50
2023-02-25T04:56:21.944Z,1.13
2023-02-25T04:58:51.665Z,1.33
2023-02-25T05:01:18.464Z,1.95
2023-02-25T05:03:45.508Z,1.80
2023-02-25T05:06:15.230Z,1.80
2023-02-25T05:08:41.841Z,1.27
2023-02-25T05:11:08.507Z,1.40
2023-02-25T05:13:38.138Z,1.90
2023-02-25T05:16:07.610Z,1.58
2023-02-25T05:18:38.800Z,1.17
2023-02-25T05:21:09.590Z,1.50
2023-02-25T05:23:36.021Z,1.75
2023-02-25T05:26:02.879Z,1.73
2023-02-25T05:28:29.476Z,1.50
2023-02-25T05:30:57.104Z,2.22
2023-02-25T05:33:24.371Z,1.02
2023-02-25T05:35:51.574Z,1.05
2023-02-25T05:38:18.451Z,1.75
2023-02-25T05:40:45.114Z,1.58
2023-02-25T05:43:11.770Z,1.65
2023-02-25T05:45:38.333Z,1.85
2023-02-25T05:48:06.289Z,1.35
2023-02-25T05:50:34.704Z,1.80
2023-02-25T05:53:01.479Z,1.73
2023-02-25T05:55:28.175Z,2.70
2023-02-25T05:57:54.708Z,2.13
2023-02-25T06:00:21.731Z,1.65
2023-02-25T06:02:50.115Z,1.33
2023-02-25T06:05:17.522Z,1.77
2023-02-25T06:07:44.162Z,2.33
2023-02-25T06:10:11.920Z,2.22
2023-02-25T06:12:38.863Z,1.90
2023-02-25T06:15:06.044Z,2.17
2023-02-25T06:17:32.686Z,1.77
2023-02-25T06:20:01.307Z,1.00
2023-02-25T06:22:27.981Z,1.48
2023-02-25T06:24:54.728Z,1.90
2023-02-25T06:27:21.523Z,2.65
2023-02-25T06:29:48.984Z,1.80
2023-02-25T06:32:21.298Z,1.92
2023-02-25T06:34:47.910Z,1.33
2023-02-25T06:37:16.275Z,2.40
2023-02-25T06:39:43.218Z,1.33
2023-02-25T06:42:10.547Z,1.67
2023-02-25T06:44:40.366Z,1.35
2023-02-25T06:47:06.903Z,1.80
2023-02-25T06:49:33.609Z,1.42
2023-02-25T06:52:00.402Z,1.70
2023-02-25T06:54:27.978Z,2.97
2023-02-25T06:56:55.676Z,1.85
2023-02-25T06:59:22.229Z,1.40
2023-02-25T07:01:48.994Z,2.58
2023-02-25T07:04:19.202Z,1.63
2023-02-25T07:06:45.977Z,1.92
2023-02-25T07:09:12.574Z,1.85
2023-02-25T07:11:39.470Z,2.13
2023-02-25T07:14:06.455Z,2.40
2023-02-25T07:16:34.445Z,1.73
2023-02-25T07:19:02.347Z,1.63
2023-02-25T07:21:30.979Z,1.98
2023-02-25T07:23:58.475Z,1.20
2023-02-25T07:26:28.320Z,2.88
2023-02-25T07:28:57.093Z,1.30
2023-02-25T07:31:24.894Z,0.60
2023-02-25T07:33:54.522Z,1.00
2023-02-25T07:36:21.469Z,2.05
2023-02-25T07:38:51.178Z,0.93
2023-02-25T07:41:19.388Z,1.20
2023-02-25T07:43:46.377Z,1.50
2023-02-25T07:46:13.461Z,1.50
2023-02-25T07:48:40.602Z,1.65
2023-02-25T07:51:11.009Z,1.95
2023-02-25T07:53:38.393Z,0.93
2023-02-25T07:56:06.446Z,1.08
2023-02-25T07:58:33.564Z,1.13
2023-02-25T08:01:00.397Z,1.08
2023-02-25T08:03:26.989Z,0.93
2023-02-25T08:05:54.380Z,1.10
2023-02-25T08:08:21.727Z,1.05
2023-02-25T08:10:48.872Z,0.35
2023-02-25T08:13:15.584Z,0.70
2023-02-25T08:15:43.785Z,0.90
2023-02-25T08:18:11.458Z,1.48
2023-02-25T08:20:38.529Z,1.13
2023-02-25T08:23:06.297Z,0.63
2023-02-25T08:25:33.021Z,1.00
2023-02-25T08:28:01.090Z,0.63
2023-02-25T08:30:27.989Z,0.88
2023-02-25T08:32:54.661Z,0.60
2023-02-25T08:35:21.282Z,0.50
2023-02-25T08:37:48.247Z,0.77
2023-02-25T08:40:14.929Z,1.23
2023-02-25T08:42:41.566Z,0.70
2023-02-25T08:45:08.549Z,0.63
2023-02-25T08:47:35.398Z,1.77
2023-02-25T08:50:02.122Z,0.73
2023-02-25T08:52:33.661Z,1.55
2023-02-25T08:55:03.810Z,0.90
2023-02-25T08:57:30.607Z,1.00
2023-02-25T08:59:57.321Z,1.20
2023-02-25T09:02:24.433Z,0.65
2023-02-25T09:04:54.324Z,1.10
2023-02-25T09:07:21.027Z,0.88
2023-02-25T09:09:47.888Z,0.47
2023-02-25T09:12:14.649Z,0.40
2023-02-25T09:14:41.370Z,0.10
2023-02-25T09:17:08.298Z,0.30
2023-02-25T09:19:38.552Z,0.38
2023-02-25T09:22:09.231Z,0.43
2023-02-25T09:24:36.427Z,0.52
2023-02-25T09:27:08.119Z,0.47
2023-02-25T09:29:39.051Z,0.57
2023-02-25T09:32:06.842Z,0.60
2023-02-25T09:34:36.374Z,0.32
2023-02-25T09:37:06.360Z,0.60
2023-02-25T09:39:32.822Z,0.77
2023-02-25T09:42:09.406Z,1.08
2023-02-25T09:44:53.203Z,0.90
2023-02-25T09:47:26.700Z,0.60
2023-02-25T09:50:01.578Z,0.28
2023-02-25T09:52:35.401Z,0.70
2023-02-25T09:55:18.626Z,0.50
2023-02-25T09:57:56.125Z,0.47
2023-02-25T10:00:23.786Z,0.68
2023-02-25T10:03:02.656Z,0.68
2023-02-25T10:05:59.432Z,0.88
2023-02-25T10:08:38.214Z,0.43
2023-02-25T10:11:18.160Z,0.35
2023-02-25T10:14:18.208Z,0.70
2023-02-25T10:17:06.196Z,0.20
2023-02-25T10:20:10.157Z,0.57
2023-02-25T10:22:55.877Z,0.60
2023-02-25T10:25:30.128Z,0.82
2023-02-25T10:28:01.929Z,0.90
2023-02-25T10:30:34.907Z,0.55
2023-02-25T10:33:18.938Z,0.50
2023-02-25T10:35:45.473Z,0.70
2023-02-25T10:38:13.039Z,0.13
2023-02-25T10:40:43.262Z,0.63
2023-02-25T10:43:21.650Z,0.63
2023-02-25T10:45:56.565Z,0.38
2023-02-25T10:48:25.215Z,1.10
2023-02-25T10:54:07.210Z,0.40
2023-02-25T10:56:45.491Z,0.10
2023-02-25T10:59:31.633Z,0.45
2023-02-25T11:02:00.401Z,0.43
2023-02-25T11:04:37.647Z,0.30
2023-02-25T11:07:43.214Z,0.38
2023-02-25T11:10:17.548Z,1.13
2023-02-25T11:12:54.513Z,0.82
2023-02-25T11:15:43.731Z,0.75
2023-02-25T11:18:23.543Z,0.35
2023-02-25T11:21:00.577Z,0.95
2023-02-25T11:23:38.403Z,0.65
2023-02-25T11:26:06.890Z,0.80
2023-02-25T11:28:40.466Z,0.55
2023-02-25T11:31:17.396Z,0.98
2023-02-25T11:33:51.652Z,0.38
2023-02-25T11:36:23.852Z,0.70
2023-02-25T11:39:04.004Z,0.47
2023-02-25T11:41:35.369Z,0.90
2023-02-25T11:44:20.301Z,0.60
2023-02-25T11:46:59.206Z,1.05
2023-02-25T11:49:52.908Z,0.15
2023-02-25T11:52:28.574Z,1.02
2023-02-25T11:55:13.881Z,0.50
2023-02-25T11:58:12.055Z,1.35
2023-02-25T12:00:56.257Z,0.98
2023-02-25T12:04:01.032Z,0.20
2023-02-25T12:06:52.830Z,0.65
2023-02-25T12:10:04.485Z,0.88
2023-02-25T12:12:56.985Z,0.35
2023-02-25T12:15:45.245Z,0.60
2023-02-25T12:18:28.341Z,1.00
2023-02-25T12:21:13.796Z,1.52
2023-02-25T12:24:12.888Z,0.77
2023-02-25T12:27:01.199Z,0.30
2023-02-25T12:29:57.131Z,0.32
2023-02-25T12:32:52.709Z,0.52
2023-02-25T12:35:43.983Z,1.88
2023-02-25T12:38:27.219Z,0.43
2023-02-25T12:41:16.691Z,0.68
2023-02-25T12:43:53.960Z,0.70
2023-02-25T12:46:44.049Z,0.45
2023-02-25T12:49:34.717Z,0.80
2023-02-25T12:52:37.762Z,0.77
2023-02-25T12:55:42.090Z,0.68
2023-02-25T12:58:26.837Z,0.80
2023-02-25T13:01:02.857Z,0.93
2023-02-25T13:03:54.585Z,1.33
2023-02-25T13:06:34.463Z,0.50
2023-02-25T13:09:25.679Z,1.08
2023-02-25T13:12:11.021Z,0.55
2023-02-25T13:14:50.728Z,0.75
2023-02-25T13:17:42.140Z,0.40
2023-02-25T13:20:36.938Z,0.90
2023-02-25T13:23:21.052Z,0.70
2023-02-25T13:26:03.012Z,0.55
2023-02-25T13:28:51.602Z,0.50
2023-02-25T13:31:36.548Z,0.57
2023-02-25T13:34:15.162Z,0.60
2023-02-25T13:36:57.920Z,0.52
2023-02-25T13:39:47.584Z,0.98
2023-02-25T13:42:44.755Z,0.73
2023-02-25T13:45:47.747Z,0.80
2023-02-25T13:48:45.894Z,0.80
2023-02-25T13:51:54.259Z,0.90
2023-02-25T13:54:50.968Z,0.40
2023-02-25T13:57:41.629Z,0.40
2023-02-25T14:00:36.928Z,1.10
2023-02-25T14:03:22.412Z,0.38
2023-02-25T14:06:24.815Z,1.23
2023-02-25T14:08:51.448Z,0.47
2023-02-25T14:11:43.835Z,0.52
2023-02-25T14:14:26.286Z,0.60
2023-02-25T14:17:11.518Z,0.90
2023-02-25T14:19:57.962Z,0.80
2023-02-25T14:22:34.230Z,0.82
2023-02-25T14:25:08.322Z,1.48
2023-02-25T14:28:05.869Z,0.88
2023-02-25T14:30:51.849Z,0.32
2023-02-25T14:33:19.506Z,0.40
2023-02-25T14:36:03.893Z,0.93
2023-02-25T14:38:50.847Z,0.40
2023-02-25T14:44:10.424Z,0.40
2023-02-25T14:49:35.282Z,0.82
2023-02-25T14:52:17.149Z,0.95
2023-02-25T14:55:08.625Z,0.90
2023-02-25T14:58:06.217Z,1.00
2023-02-25T15:00:55.534Z,0.60
2023-02-25T15:03:29.652Z,0.93
2023-02-25T15:06:20.528Z,0.68
2023-02-25T15:09:19.414Z,0.55
2023-02-25T15:12:21.848Z,0.77
2023-02-25T15:15:07.014Z,0.20
2023-02-25T15:17:46.169Z,0.73
2023-02-25T15:20:34.634Z,0.45
2023-02-25T15:23:12.824Z,0.68
2023-02-25T15:25:41.501Z,1.50
2023-02-25T15:28:29.846Z,0.40
2023-02-25T15:31:10.748Z,0.43
2023-02-25T15:33:47.451Z,0.73
2023-02-25T15:36:13.964Z,0.68
2023-02-25T15:38:44.606Z,0.50
2023-02-25T15:41:41.306Z,0.90
2023-02-25T15:44:07.695Z,0.30
2023-02-25T15:46:34.130Z,0.63
2023-02-25T15:49:35.175Z,0.82
2023-02-25T15:52:04.858Z,0.50
2023-02-25T15:54:31.463Z,0.63
2023-02-25T15:57:10.284Z,1.30
2023-02-25T15:59:42.260Z,0.40
2023-02-25T16:02:29.957Z,0.55
2023-02-25T16:05:18.276Z,0.40
2023-02-25T16:07:53.804Z,0.30
2023-02-25T16:10:40.190Z,0.70
2023-02-25T16:13:14.736Z,0.98
2023-02-25T16:15:48.581Z,0.65
2023-02-25T16:18:36.650Z,1.08
2023-02-25T16:21:06.617Z,0.40
2023-02-25T16:23:38.930Z,0.43
2023-02-25T16:26:30.460Z,0.38
2023-02-25T16:29:12.667Z,0.93
2023-02-25T16:31:54.508Z,0.35
2023-02-25T16:34:53.530Z,1.02
2023-02-25T16:37:40.635Z,0.40
2023-02-25T16:40:31.481Z,0.60
2023-02-25T16:43:01.449Z,0.50
2023-02-25T16:45:42.249Z,0.70
2023-02-25T16:50:48.833Z,0.43
2023-02-25T16:53:22.116Z,0.63
2023-02-25T16:55:50.836Z,0.40
2023-02-25T16:58:24.197Z,0.70
2023-02-25T17:01:00.540Z,0.50
2023-02-25T17:03:31.092Z,1.10
2023-02-25T17:06:14.629Z,0.63
2023-02-25T17:08:46.348Z,0.88
2023-02-25T17:11:16.956Z,1.23
2023-02-25T17:13:45.424Z,0.82
2023-02-25T17:19:23.074Z,0.50
2023-02-25T17:21:56.986Z,0.77
2023-02-25T17:24:28.694Z,0.38
2023-02-25T17:26:55.917Z,1.10
2023-02-25T17:29:34.710Z,0.70
2023-02-25T17:32:31.700Z,0.93
2023-02-25T17:35:02.113Z,0.95
2023-02-25T17:37:31.052Z,0.30
2023-02-25T17:40:08.416Z,0.80
2023-02-25T17:42:38.956Z,0.68
2023-02-25T17:45:27.035Z,0.35
2023-02-25T17:47:56.087Z,0.20
2023-02-25T17:50:31.658Z,0.32
2023-02-25T17:53:12.503Z,0.95
2023-02-25T17:58:07.302Z,0.70
2023-02-25T18:00:36.500Z,0.22
2023-02-25T18:03:30.727Z,0.65
2023-02-25T18:05:59.959Z,0.70
2023-02-25T18:08:29.382Z,0.30
2023-02-25T18:11:04.488Z,0.22
2023-02-25T18:13:36.208Z,1.00
2023-02-25T18:16:41.641Z,1.27
2023-02-25T18:19:22.955Z,1.40
2023-02-25T18:21:49.577Z,0.63
2023-02-25T18:24:32.999Z,0.70
2023-02-25T18:27:07.218Z,0.40
2023-02-25T18:29:34.302Z,0.60
2023-02-25T18:32:01.100Z,0.80
2023-02-25T18:34:27.684Z,0.50
2023-02-25T18:36:54.524Z,0.40
2023-02-25T18:39:25.120Z,0.68
2023-02-25T18:41:52.070Z,0.75
2023-02-25T18:44:18.963Z,0.35
2023-02-25T18:46:45.787Z,0.82
2023-02-25T18:49:12.349Z,0.50
2023-02-25T18:51:39.287Z,0.32
2023-02-25T18:54:06.031Z,0.28
2023-02-25T18:56:32.812Z,0.30
2023-02-25T18:58:59.409Z,0.20
2023-02-25T19:01:30.965Z,0.60
2023-02-25T19:04:00.108Z,0.20
2023-02-25T19:06:32.065Z,0.50
2023-02-25T19:08:58.659Z,0.70
2023-02-25T19:11:29.835Z,0.45
2023-02-25T19:13:56.628Z,0.52
2023-02-25T19:16:26.374Z,0.35
2023-02-25T19:18:56.150Z,0.30
2023-02-25T19:21:22.970Z,0.47
2023-02-25T19:23:51.780Z,0.40
2023-02-25T19:26:18.563Z,0.63
2023-02-25T19:28:45.214Z,1.15
2023-02-25T19:31:12.396Z,1.42
2023-02-25T19:33:39.466Z,0.25
2023-02-25T19:36:08.389Z,1.83
2023-02-25T19:38:35.444Z,0.90
2023-02-25T19:41:04.281Z,1.38
2023-02-25T19:43:32.483Z,0.35
2023-02-25T19:45:59.238Z,0.43
2023-02-25T19:48:26.074Z,0.60
2023-02-25T19:50:52.802Z,0.80
2023-02-25T19:53:19.555Z,0.30
2023-02-25T19:55:46.543Z,0.50
2023-02-25T19:58:13.291Z,0.63
2023-02-25T20:00:45.715Z,1.15
2023-02-25T20:03:19.126Z,0.50
2023-02-25T20:05:48.828Z,0.77
2023-02-25T20:08:15.588Z,0.43
2023-02-25T20:10:43.750Z,0.50
2023-02-25T20:13:10.302Z,0.32
2023-02-25T20:15:37.197Z,0.65
2023-02-25T20:18:04.140Z,0.40
2023-02-25T20:20:30.742Z,0.47
2023-02-25T20:22:57.398Z,0.70
2023-02-25T20:25:24.184Z,0.32
2023-02-25T20:27:53.919Z,0.52
2023-02-25T20:30:20.871Z,0.40
2023-02-25T20:32:47.414Z,0.25
2023-02-25T20:35:17.718Z,0.65
2023-02-25T20:37:54.263Z,0.22
2023-02-25T20:40:20.996Z,0.20
2023-02-25T20:42:47.745Z,0.50
2023-02-25T20:45:15.831Z,0.55
2023-02-25T20:47:42.661Z,0.40
2023-02-25T20:50:09.983Z,0.35
2023-02-25T20:52:36.788Z,0.40
2023-02-25T20:55:05.383Z,0.70
2023-02-25T20:57:33.820Z,0.70
2023-02-25T21:00:05.829Z,0.17
2023-02-25T21:02:35.896Z,0.43
2023-02-25T21:05:02.837Z,0.70
2023-02-25T21:07:29.596Z,0.93
2023-02-25T21:09:56.342Z,1.00
2023-02-25T21:12:23.098Z,0.40
2023-02-25T21:14:49.741Z,0.60
2023-02-25T21:17:17.022Z,0.80
2023-02-25T21:19:43.651Z,0.50
2023-02-25T21:22:10.157Z,0.43
2023-02-25T21:24:36.852Z,0.40
2023-02-25T21:27:04.068Z,0.60
2023-02-25T21:29:30.565Z,0.63
2023-02-25T21:31:57.161Z,0.68
2023-02-25T21:34:23.996Z,0.52
2023-02-25T21:36:50.684Z,0.63
2023-02-25T21:39:17.198Z,0.40
2023-02-25T21:41:45.086Z,0.73
2023-02-25T21:44:12.306Z,0.52
2023-02-25T21:46:40.587Z,0.82
2023-02-25T21:49:07.191Z,0.32
2023-02-25T21:51:34.222Z,0.63
2023-02-25T21:54:02.084Z,0.30
2023-02-25T21:56:30.706Z,0.32
2023-02-25T22:01:28.603Z,0.25
2023-02-25T22:03:56.707Z,0.40
2023-02-25T22:06:24.522Z,0.52
2023-02-25T22:08:53.016Z,0.95
2023-02-25T22:11:29.295Z,0.85
2023-02-25T22:13:55.856Z,0.68
2023-02-25T22:16:24.087Z,0.50
2023-02-25T22:18:51.401Z,0.28
2023-02-25T22:21:21.723Z,0.30
2023-02-25T22:23:50.338Z,0.10
2023-02-25T22:28:45.974Z,0.25
2023-02-25T22:31:16.255Z,0.20
2023-02-25T22:33:43.682Z,0.70
2023-02-25T22:36:11.533Z,0.40
2023-02-25T22:38:40.759Z,0.30
2023-02-25T22:41:13.818Z,0.28
2023-02-25T22:43:40.684Z,0.43
2023-02-25T22:46:13.445Z,0.38
2023-02-25T22:48:41.474Z,0.20
2023-02-25T22:51:11.666Z,0.22
2023-02-25T22:53:40.919Z,0.40
2023-02-25T22:56:10.146Z,0.20
2023-02-25T22:58:39.008Z,0.20
2023-02-25T23:01:09.525Z,0.20
2023-02-25T23:03:36.292Z,0.28
2023-02-25T23:06:03.140Z,0.40
2023-02-25T23:08:29.884Z,0.30
2023-02-25T23:10:56.704Z,0.20
2023-02-25T23:13:23.396Z,0.30
2023-02-25T23:15:50.287Z,0.28
2023-02-25T23:18:17.136Z,0.43
2023-02-25T23:20:43.919Z,0.50
2023-02-25T23:23:13.767Z,0.35
2023-02-25T23:25:50.540Z,0.65
2023-02-25T23:28:17.101Z,0.30
2023-02-25T23:30:44.606Z,0.50
2023-02-25T23:33:12.482Z,0.17
2023-02-25T23:35:42.265Z,0.70
2023-02-25T23:38:11.618Z,0.55
2023-02-25T23:40:38.223Z,0.20
2023-02-25T23:43:04.718Z,0.22
2023-02-25T23:45:33.054Z,0.25
2023-02-25T23:47:59.769Z,0.88
2023-02-25T23:50:27.106Z,0.52
2023-02-25T23:52:54.112Z,1.10
2023-02-25T23:55:22.101Z,0.55
2023-02-25T23:57:49.651Z,0.43
